Flight Track Log - Related Links

Times and Time Zones

All times are in EDT time to prevent confusion due to time zone crossing. See the DAL1562 flight status page for this flight to view local times or setup timezone preferences in your user account.

Time Position Orientation Groundspeed Altitude Reporting Facility
EDT Latitude Longitude Course Direction KTS MPH feet Rate Location/Type
Thu 02:28:19 PM 42.2292 -83.3369 30° Northeast 145 167 1,400  Level Cleveland Center
Thu 02:30:09 PM 42.3311 -83.2572 30° Northeast 304 350 5,400 2,618 Climbing Cleveland Center
Thu 02:31:04 PM 42.3811 -83.1722 51° Northeast 316 364 8,600 2,750 Climbing Cleveland Center
Thu 02:31:45 PM 42.3744 -83.0986 97° East 324 373 9,800 832 Climbing Cleveland Center
Thu 02:32:45 PM 42.3456 -82.9767 108° East 330 380 10,000 100 Climbing Cleveland Center
Thu 02:33:45 PM 42.3169 -82.8522 107° East 341 392 10,000 1,050 Level Cleveland Center
Thu 02:34:45 PM 42.2881 -82.7275 107° East 346 398 12,100 2,000 Climbing Cleveland Center
Thu 02:35:45 PM 42.2569 -82.6003 108° East 346 398 14,000 1,835 Climbing Cleveland Center
Thu 02:36:46 PM 42.2258 -82.4675 108° East 351 404 15,800 2,200 Climbing Cleveland Center
Thu 02:37:45 PM 42.2136 -82.3242 97° East 364 419 18,400 2,370 Climbing Cleveland Center
Thu 02:38:45 PM 42.2011 -82.1725 96° East 386 444 20,500 2,050 Climbing Cleveland Center
Thu 02:39:45 PM 42.1928 -82.0125 94° East 417 480 22,500 2,100 Climbing Cleveland Center
Thu 02:40:45 PM 42.1486 -81.8856 115° Southeast 423 487 24,700 1,800 Climbing Cleveland Center
Thu 02:41:45 PM 42.0642 -81.7914 140° Southeast 386 444 26,100 1,450 Climbing Cleveland Center
Thu 02:42:45 PM 41.9756 -81.6892 139° Southeast 404 465 27,600 1,300 Climbing Cleveland Center
Thu 02:43:45 PM 41.8847 -81.5872 140° Southeast 429 494 28,700 1,100 Climbing Cleveland Center
Thu 02:44:45 PM 41.7917 -81.4800 139° Southeast 429 494 29,800 1,100 Climbing Cleveland Center
Thu 02:45:45 PM 41.6883 -81.3617 139° Southeast 435 501 30,900 600 Climbing Cleveland Center
Thu 02:46:45 PM 41.5911 -81.2494 139° Southeast 450 518 31,000 50 Climbing Cleveland Center
Thu 02:47:45 PM 41.4981 -81.1375 138° Southeast 457 526 31,000  Level Cleveland Center
Thu 02:48:45 PM 41.4108 -81.0150 133° Southeast 450 518 31,000  Level Cleveland Center
Thu 02:49:45 PM 41.3239 -80.8928 133° Southeast 450 518 31,000  Level Cleveland Center
Thu 02:50:45 PM 41.2364 -80.7736 134° Southeast 456 525 31,000  Level Cleveland Center
Thu 02:51:45 PM 41.1553 -80.6658 135° Southeast 456 525 31,000 -150 Level Cleveland Center
Thu 02:52:45 PM 41.0697 -80.5444 133° Southeast 456 525 30,700 -700 Descending Cleveland Center
Thu 02:53:45 PM 40.9822 -80.4264 134° Southeast 456 525 29,600 -850 Descending Cleveland Center
Thu 02:54:45 PM 40.8964 -80.3083 134° Southeast 450 518 29,000 -300 Descending Cleveland Center
Thu 02:55:45 PM 40.8128 -80.1853 132° Southeast 450 518 29,000  Level Cleveland Center
Thu 02:56:45 PM 40.7558 -80.0294 116° Southeast 456 525 29,000  Level Cleveland Center
Thu 02:57:45 PM 40.7050 -79.8711 113° Southeast 461 531 29,000  Level Cleveland Center
Thu 02:58:45 PM 40.6475 -79.7211 117° Southeast 461 531 29,000  Level Cleveland Center
Thu 02:59:45 PM 40.5900 -79.5661 116° Southeast 466 536 29,000  Level Cleveland Center
Thu 03:00:45 PM 40.5300 -79.3975 115° Southeast 461 531 29,000  Level Cleveland Center
Thu 03:01:45 PM 40.4886 -79.2317 108° East 467 537 29,000  Level Cleveland Center
Thu 03:02:45 PM 40.4739 -79.0547 96° East 472 543 29,000  Level Cleveland Center
Thu 03:03:45 PM 40.4611 -78.8831 96° East 472 543 29,000  Level Cleveland Center
Thu 03:04:45 PM 40.4436 -78.7089 97° East 478 550 29,000  Level Cleveland Center
Thu 03:05:45 PM 40.4303 -78.5372 96° East 478 550 29,000 -549 Level Cleveland Center
Thu 03:07:40 PM 40.4061 -78.2183 96° East 487 560 27,400 -1,337 Descending New York Center
Thu 03:08:40 PM 40.3900 -78.0419 97° East 482 555 25,100 -1,190 Descending New York Center
Thu 03:09:41 PM 40.3731 -77.8714 97° East 482 555 25,000 -984 Descending New York Center
Thu 03:10:42 PM 40.3572 -77.6844 96° East 477 549 23,100 -1,550 Descending New York Center
Thu 03:11:41 PM 40.3442 -77.5142 96° East 472 543 21,900 -1,059 Descending New York Center
Thu 03:12:41 PM 40.3283 -77.3492 97° East 466 536 21,000 -450 Descending New York Center
Thu 03:13:41 PM 40.3114 -77.2033 99° East 466 536 21,000 -347 Level New York Center
Thu 03:14:42 PM 40.2914 -77.0325 99° East 466 536 20,300 -1,059 Descending New York Center
Thu 03:15:40 PM 40.2664 -76.8725 102° East 461 531 18,900 -1,765 Descending New York Center
Thu 03:16:41 PM 40.2397 -76.7014 101° East 442 509 16,800 -2,000 Descending New York Center
Thu 03:17:40 PM 40.2158 -76.5528 102° East 420 483 14,900 -1,815 Descending New York Center
Thu 03:18:40 PM 40.1914 -76.4092 103° East 409 471 13,200 -1,750 Descending New York Center
Thu 03:19:40 PM 40.1703 -76.2825 102° East 404 465 11,400 -1,622 Descending New York Center
Thu 03:20:31 PM 40.1500 -76.1572 102° East 388 447 10,200 -1,183 Descending FAA TRACON SMA TRACON (SMA)
Thu 03:20:51 PM 40.1417 -76.1053 102° East 382 440 10,000 -300 Descending FAA TRACON SMA TRACON (SMA)
Thu 03:21:11 PM 40.1347 -76.0642 102° East 380 437 10,000  Level FAA TRACON SMA TRACON (SMA)
Thu 03:21:31 PM 40.1292 -76.0228 100° East 381 438 10,000  Level FAA TRACON SMA TRACON (SMA)
Thu 03:21:51 PM 40.1194 -75.9708 104° East 378 435 10,000  Level FAA TRACON SMA TRACON (SMA)
Thu 03:22:11 PM 40.1139 -75.9344 101° East 341 392 10,000 -450 Level FAA TRACON SMA TRACON (SMA)
Thu 03:22:31 PM 40.1064 -75.8911 103° East 319 367 9,700 -878 Descending FAA TRACON SMA TRACON (SMA)
Thu 03:22:52 PM 40.1000 -75.8547 103° East 321 369 9,400 -900 Descending FAA TRACON SMA TRACON (SMA)
Thu 03:23:11 PM 40.0942 -75.8200 102° East 320 368 9,100 -1,231 Descending FAA TRACON SMA TRACON (SMA)
Thu 03:23:31 PM 40.0878 -75.7853 104° East 320 368 8,600 -1,463 Descending FAA TRACON SMA TRACON (SMA)
Thu 03:23:52 PM 40.0825 -75.7431 99° East 316 364 8,100 -590 Descending FAA TRACON SMA TRACON (SMA)
Thu 03:24:32 PM 40.0956 -75.6822 74° East 281 323 8,000  Descending FAA TRACON SMA TRACON (SMA)
Thu 03:24:51 PM 40.1153 -75.6528 49° Northeast 278 320 8,100  Climbing FAA TRACON SMA TRACON (SMA)
Thu 03:25:11 PM 40.1306 -75.6281 51° Northeast 286 329 8,000 -150 Descending FAA TRACON SMA TRACON (SMA)
Thu 03:25:31 PM 40.1461 -75.6047 49° Northeast 278 320 8,000 -300 Level FAA TRACON SMA TRACON (SMA)
Thu 03:25:51 PM 40.1658 -75.5750 49° Northeast 279 321 7,800 -900 Descending FAA TRACON SMA TRACON (SMA)
Thu 03:26:11 PM 40.1811 -75.5522 49° Northeast 276 318 7,400 -1,171 Descending FAA TRACON SMA TRACON (SMA)
Thu 03:26:32 PM 40.1961 -75.5289 50° Northeast 270 311 7,000 -1,500 Descending FAA TRACON SMA TRACON (SMA)
Thu 03:26:51 PM 40.2019 -75.4933 78° East 275 316 6,400 -1,385 Descending FAA TRACON SMA TRACON (SMA)
Thu 03:27:11 PM 40.1919 -75.4681 117° Southeast 251 289 6,100 -600 Descending FAA TRACON SMA TRACON (SMA)
Thu 03:27:31 PM 40.1753 -75.4547 149° Southeast 237 273 6,000 -150 Descending FAA TRACON SMA TRACON (SMA)
Thu 03:27:51 PM 40.1525 -75.4492 169° South 201 231 6,000  Level FAA TRACON SMA TRACON (SMA)
Thu 03:28:11 PM 40.1333 -75.4461 173° South 216 249 6,000  Level FAA TRACON SMA TRACON (SMA)
Thu 03:28:31 PM 40.1158 -75.4428 172° South 215 247 6,000  Level FAA TRACON SMA TRACON (SMA)
Thu 03:28:51 PM 40.0925 -75.4383 172° South 214 246 6,000  Level FAA TRACON SMA TRACON (SMA)
Thu 03:29:11 PM 40.0744 -75.4347 171° South 214 246 6,000  Level FAA TRACON SMA TRACON (SMA)
Thu 03:29:31 PM 40.0586 -75.4219 148° Southeast 221 254 6,000  Level FAA TRACON SMA TRACON (SMA)
Thu 03:29:51 PM 40.0389 -75.4042 145° Southeast 227 261 6,000  Level FAA TRACON SMA TRACON (SMA)
Thu 03:30:12 PM 40.0233 -75.3897 145° Southeast 223 257 6,000  Level FAA TRACON SMA TRACON (SMA)
Thu 03:30:31 PM 40.0078 -75.3750 144° Southeast 223 257 6,000  Level FAA TRACON SMA TRACON (SMA)
Thu 03:30:52 PM 39.9883 -75.3569 145° Southeast 222 255 6,000  Level FAA TRACON SMA TRACON (SMA)
Thu 03:31:31 PM 39.9578 -75.3286 145° Southeast 224 258 6,000  Level FAA TRACON SMA TRACON (SMA)
Thu 03:31:51 PM 39.9361 -75.3164 157° South 221 254 6,000  Level FAA TRACON SMA TRACON (SMA)
Thu 03:32:12 PM 39.9203 -75.3247 202° Southwest 205 236 6,000 150 Level FAA TRACON SMA TRACON (SMA)
Thu 03:32:31 PM 39.9119 -75.3436 240° Southwest 194 223 6,100  Climbing FAA TRACON SMA TRACON (SMA)
Thu 03:32:51 PM 39.9033 -75.3672 245° Southwest 200 230 6,000 -154 Descending FAA TRACON SMA TRACON (SMA)
Thu 03:33:10 PM 39.8956 -75.3869 243° Southwest 195 224 6,000  Level FAA TRACON SMA TRACON (SMA)
Thu 03:33:31 PM 39.8883 -75.4067 244° Southwest 195 224 6,000  Level FAA TRACON SMA TRACON (SMA)
Thu 03:33:51 PM 39.8825 -75.4328 254° West 195 224 6,000  Level FAA TRACON SMA TRACON (SMA)
Thu 03:34:11 PM 39.8811 -75.4542 265° West 194 223 6,000  Level FAA TRACON SMA TRACON (SMA)
Thu 03:34:32 PM 39.8792 -75.4794 264° West 192 221 6,000  Level FAA TRACON SMA TRACON (SMA)
Thu 03:34:51 PM 39.8792 -75.5006 270° West 189 217 6,000  Level FAA TRACON SMA TRACON (SMA)
Thu 03:35:11 PM 39.8775 -75.5203 264° West 179 206 6,000  Level FAA TRACON SMA TRACON (SMA)
Thu 03:35:31 PM 39.8767 -75.5392 267° West 172 198 6,000  Level FAA TRACON SMA TRACON (SMA)
Thu 03:35:51 PM 39.8761 -75.5628 268° West 170 196 6,000  Level FAA TRACON SMA TRACON (SMA)
Thu 03:36:11 PM 39.8758 -75.5822 269° West 172 198 6,000  Level FAA TRACON SMA TRACON (SMA)
Thu 03:36:32 PM 39.8756 -75.6006 269° West 172 198 6,000  Level FAA TRACON SMA TRACON (SMA)
Thu 03:36:52 PM 39.8747 -75.6253 267° West 172 198 6,000  Level FAA TRACON SMA TRACON (SMA)
Thu 03:37:11 PM 39.8742 -75.6444 268° West 172 198 6,000  Level FAA TRACON SMA TRACON (SMA)
Thu 03:37:32 PM 39.8711 -75.6625 258° West 170 196 6,000  Level FAA TRACON SMA TRACON (SMA)
Thu 03:37:51 PM 39.8594 -75.6797 229° Southwest 164 189 6,000 -462 Level FAA TRACON SMA TRACON (SMA)
Thu 03:38:11 PM 39.8511 -75.6850 206° Southwest 166 191 5,700 -1,024 Descending FAA TRACON SMA TRACON (SMA)
Thu 03:38:32 PM 39.8417 -75.7069 241° Southwest 164 189 5,300 -1,050 Descending FAA TRACON SMA TRACON (SMA)
Thu 03:38:51 PM 39.8297 -75.7250 229° Southwest 166 191 5,000 -462 Descending FAA TRACON SMA TRACON (SMA)
Thu 03:39:11 PM 39.8153 -75.7292 192° South 166 191 5,000 -615 Level FAA TRACON SMA TRACON (SMA)
Thu 03:39:30 PM 39.8039 -75.7172 141° Southeast 173 199 4,600 -1,350 Descending FAA TRACON SMA TRACON (SMA)
Thu 03:39:51 PM 39.7986 -75.6936 106° East 186 214 4,100 -857 Descending FAA TRACON SMA TRACON (SMA)
Thu 03:40:12 PM 39.7958 -75.6758 101° East 170 196 4,000 -146 Descending FAA TRACON SMA TRACON (SMA)
Thu 03:40:32 PM 39.7908 -75.6558 108° East 176 203 4,000  Level FAA TRACON SMA TRACON (SMA)
Thu 03:40:51 PM 39.7897 -75.6319 93° East 183 211 4,000  Level FAA TRACON SMA TRACON (SMA)
Thu 03:41:11 PM 39.7936 -75.6125 75° East 182 209 4,000  Level FAA TRACON SMA TRACON (SMA)
Thu 03:41:31 PM 39.7969 -75.5925 78° East 184 212 4,000  Level FAA TRACON SMA TRACON (SMA)
Thu 03:41:51 PM 39.8017 -75.5686 76° East 181 208 4,000  Level FAA TRACON SMA TRACON (SMA)
Thu 03:42:11 PM 39.8058 -75.5481 75° East 183 211 4,000 -150 Level FAA TRACON SMA TRACON (SMA)
Thu 03:42:31 PM 39.8097 -75.5286 75° East 182 209 3,900 -750 Descending FAA TRACON SMA TRACON (SMA)
Thu 03:42:51 PM 39.8147 -75.5042 75° East 181 208 3,500 -1,171 Descending FAA TRACON SMA TRACON (SMA)
Thu 03:43:12 PM 39.8183 -75.4850 76° East 179 206 3,100 -732 Descending FAA TRACON SMA TRACON (SMA)
Thu 03:43:32 PM 39.8225 -75.4667 74° East 177 204 3,000 -474 Descending FAA TRACON SMA TRACON (SMA)
Thu 03:43:50 PM 39.8264 -75.4489 74° East 176 203 2,800 -769 Descending FAA TRACON SMA TRACON (SMA)
Thu 03:44:11 PM 39.8308 -75.4242 77° East 173 199 2,500 -878 Descending FAA TRACON SMA TRACON (SMA)
Thu 03:44:31 PM 39.8344 -75.4061 75° East 171 197 2,200 -900 Descending FAA TRACON SMA TRACON (SMA)
Thu 03:44:51 PM 39.8369 -75.3889 79° East 168 193 1,900 -1,024 Descending FAA TRACON SMA TRACON (SMA)
Thu 03:45:12 PM 39.8422 -75.3675 72° East 158 182 1,500 -900 Descending FAA TRACON SMA TRACON (SMA)
Thu 03:45:31 PM 39.8458 -75.3525 73° East 133 153 1,300 -750 Descending FAA TRACON SMA TRACON (SMA)
Thu 03:45:52 PM 39.8489 -75.3350 77° East 133 153 1,000 -732 Descending FAA TRACON SMA TRACON (SMA)
Thu 03:46:12 PM 39.8517 -75.3206 76° East 132 152 800 -615 Descending FAA TRACON SMA TRACON (SMA)
Thu 03:46:31 PM 39.8544 -75.3067 75° East 131 151 600 -615 Descending FAA TRACON SMA TRACON (SMA)
Thu 03:46:51 PM 39.8572 -75.2919 76° East 130 150 400 -600 Descending FAA TRACON SMA TRACON (SMA)
Thu 03:47:11 PM 39.8597 -75.2817 72° East 131 151 200 -600 Descending FAA TRACON SMA TRACON (SMA)
Thu 03:49:00 PM 39.8722 -75.2409 68° East  Level Estimated

Login

Don't have an account? Register now (free) for customized features, flight alerts, and more!